Beckley, West Virginia
Current Conditions -  °F | °C
As of 7:51 PM on Monday 20 Oct 2014 (Local Time) from KBKW Reporting Station
Broken Clouds Broken Clouds  
Wind Chill: 51°   Ceiling: 11000
Heat Index: 51°   Visibility: 10mi
Dew Point: 43°   Wind: 6mph
Humidity: 74%   Direction: 210°SSW
Pressure: 29.97"   Gusts: NA
Location:  37.78°N, 81.19°W
Report Text: KBKW 202351Z AUTO 21005KT 10SM SCT090 BKN110 11/06 A2997 RMK AO2 SLP157 60000 T01060061 10144 20106 55002 TSNO
Loading
Personal Weather Stations






























Interactive Weather Map
Tropical Storm Tracking
New forecast layout! Learn more

10-Day Weather Forecast

Advertisements
Track Severe Weather on mobile